createdAt,value
2023-01-12T00:00:13.263Z,99990.34
2023-01-12T00:02:45.116Z,99988.39
2023-01-12T00:05:16.709Z,99994.23
2023-01-12T00:07:48.432Z,99993.32
2023-01-12T00:10:20.295Z,99994.88
2023-01-12T00:12:52.635Z,99994.16
2023-01-12T00:15:57.672Z,99991.84
2023-01-12T00:18:29.378Z,99999.27
2023-01-12T00:21:01.340Z,99997.39
2023-01-12T00:23:33.301Z,100000.16
2023-01-12T00:26:04.818Z,100004.90
2023-01-12T00:28:36.430Z,100002.27
2023-01-12T00:31:10.152Z,100007.60
2023-01-12T00:33:42.384Z,100011.25
2023-01-12T00:36:20.175Z,100014.23
2023-01-12T00:38:51.635Z,100022.28
2023-01-12T00:41:36.905Z,100021.57
2023-01-12T00:44:26.572Z,100018.15
2023-01-12T00:46:58.235Z,100022.29
2023-01-12T00:49:30.031Z,100021.54
2023-01-12T00:52:01.983Z,100022.73
2023-01-12T00:54:33.732Z,100025.94
2023-01-12T00:57:05.364Z,100019.88
2023-01-12T00:59:37.987Z,100022.91
2023-01-12T01:02:09.814Z,100018.26
2023-01-12T01:04:41.772Z,100018.84
2023-01-12T01:07:16.307Z,100024.15
2023-01-12T01:09:48.064Z,100026.94
2023-01-12T01:12:20.111Z,100029.29
2023-01-12T01:14:53.774Z,100032.17
2023-01-12T01:17:25.591Z,100029.71
2023-01-12T01:19:57.271Z,100027.80
2023-01-12T01:22:29.198Z,100016.98
2023-01-12T01:25:00.739Z,100027.06
2023-01-12T01:27:32.089Z,100028.50
2023-01-12T01:30:03.660Z,100034.08
2023-01-12T01:32:35.588Z,100030.25
2023-01-12T01:35:07.872Z,100025.63
2023-01-12T01:37:41.367Z,100028.74
2023-01-12T01:40:14.998Z,100026.45
2023-01-12T01:42:46.924Z,100031.63
2023-01-12T01:45:18.816Z,100031.81
2023-01-12T01:47:53.721Z,100034.88
2023-01-12T01:50:29.186Z,100044.48
2023-01-12T01:53:04.022Z,100045.66
2023-01-12T01:55:36.427Z,100042.88
2023-01-12T01:58:12.122Z,100040.05
2023-01-12T02:00:45.323Z,100044.33
2023-01-12T02:03:18.318Z,100043.20
2023-01-12T02:05:52.759Z,100046.03
2023-01-12T02:08:28.158Z,100047.20
2023-01-12T02:11:02.941Z,100048.83
2023-01-12T02:13:50.309Z,100047.45
2023-01-12T02:16:26.441Z,100046.65
2023-01-12T02:19:26.917Z,100048.52
2023-01-12T02:22:28.521Z,100048.13
2023-01-12T02:25:30.676Z,100051.98
2023-01-12T02:28:18.397Z,100051.48
2023-01-12T02:31:22.362Z,100049.14
2023-01-12T02:34:09.579Z,100048.25
2023-01-12T02:36:52.210Z,100053.98
2023-01-12T02:39:29.325Z,100051.65
2023-01-12T02:42:25.884Z,100056.30
2023-01-12T02:45:07.205Z,100059.75
2023-01-12T02:47:48.278Z,100060.16
2023-01-12T02:50:25.948Z,100061.93
2023-01-12T02:53:01.130Z,100066.94
2023-01-12T02:55:35.247Z,100071.31
2023-01-12T02:58:11.052Z,100070.05
2023-01-12T03:00:45.925Z,100073.14
2023-01-12T03:03:17.691Z,100076.16
2023-01-12T03:05:49.379Z,100075.85
2023-01-12T03:08:25.333Z,100071.77
2023-01-12T03:11:08.768Z,100072.86
2023-01-12T03:13:45.695Z,100068.06
2023-01-12T03:16:20.393Z,100074.90
2023-01-12T03:18:52.769Z,100076.09
2023-01-12T03:21:32.022Z,100082.77
2023-01-12T03:24:10.415Z,100082.23
2023-01-12T03:26:48.045Z,100077.61
2023-01-12T03:29:27.717Z,100083.52
2023-01-12T03:32:00.044Z,100090.34
2023-01-12T03:34:32.331Z,100088.73
2023-01-12T03:37:09.738Z,100090.50
2023-01-12T03:39:52.248Z,100091.27
2023-01-12T03:42:29.661Z,100090.23
2023-01-12T03:45:11.699Z,100081.63
2023-01-12T03:47:45.473Z,100081.14
2023-01-12T03:50:21.154Z,100084.05
2023-01-12T03:52:55.955Z,100086.09
2023-01-12T03:55:30.149Z,100083.42
2023-01-12T03:58:02.361Z,100084.66
2023-01-12T04:00:34.192Z,100085.17
2023-01-12T04:03:13.664Z,100087.94
2023-01-12T04:05:46.752Z,100094.99
2023-01-12T04:08:19.714Z,100098.42
2023-01-12T04:10:52.708Z,100110.55
2023-01-12T04:13:24.313Z,100110.39
2023-01-12T04:15:55.941Z,100106.27
2023-01-12T04:18:27.650Z,100104.98
2023-01-12T04:20:59.299Z,100103.25
2023-01-12T04:23:32.142Z,100099.11
2023-01-12T04:26:03.634Z,100102.74
2023-01-12T04:28:35.399Z,100100.27
2023-01-12T04:31:12.815Z,100100.41
2023-01-12T04:33:51.182Z,100097.45
2023-01-12T04:36:27.404Z,100095.48
2023-01-12T04:38:59.356Z,100097.69
2023-01-12T04:41:31.335Z,100102.12
2023-01-12T04:44:02.851Z,100103.02
2023-01-12T04:46:34.640Z,100102.88
2023-01-12T04:49:06.199Z,100099.05
2023-01-12T04:51:38.517Z,100099.23
2023-01-12T04:54:10.949Z,100103.52
2023-01-12T04:56:42.438Z,100107.69
2023-01-12T04:59:14.290Z,100107.77
2023-01-12T05:01:46.031Z,100112.01
2023-01-12T05:04:17.773Z,100116.98
2023-01-12T05:06:51.073Z,100115.88
2023-01-12T05:09:39.974Z,100117.23
2023-01-12T05:12:12.253Z,100115.92
2023-01-12T05:14:43.758Z,100120.27
2023-01-12T05:17:15.757Z,100124.42
2023-01-12T05:19:48.965Z,100128.86
2023-01-12T05:22:20.869Z,100132.96
2023-01-12T05:24:52.427Z,100136.48
2023-01-12T05:27:24.020Z,100134.80
2023-01-12T05:29:57.376Z,100137.95
2023-01-12T05:32:28.989Z,100138.19
2023-01-12T05:35:01.075Z,100135.70
2023-01-12T05:37:34.384Z,100131.71
2023-01-12T05:40:06.963Z,100134.58
2023-01-12T05:42:57.506Z,100134.88
2023-01-12T05:45:29.540Z,100140.36
2023-01-12T05:48:02.563Z,100133.97
2023-01-12T05:50:34.143Z,100137.92
2023-01-12T05:53:06.999Z,100140.63
2023-01-12T05:55:39.986Z,100139.73
2023-01-12T05:58:11.904Z,100146.60
2023-01-12T06:00:43.753Z,100145.13
2023-01-12T06:03:15.600Z,100148.19
2023-01-12T06:05:53.460Z,100144.98
2023-01-12T06:08:25.378Z,100141.91
2023-01-12T06:10:56.906Z,100142.44
2023-01-12T06:13:45.887Z,100136.68
2023-01-12T06:16:17.883Z,100136.61
2023-01-12T06:18:49.448Z,100129.27
2023-01-12T06:21:23.743Z,100135.96
2023-01-12T06:23:55.407Z,100141.64
2023-01-12T06:26:26.945Z,100145.77
2023-01-12T06:28:58.361Z,100152.14
2023-01-12T06:31:30.072Z,100157.82
2023-01-12T06:34:01.932Z,100152.14
2023-01-12T06:36:33.704Z,100155.03
2023-01-12T06:39:05.761Z,100157.23
2023-01-12T06:41:55.876Z,100156.97
2023-01-12T06:44:27.295Z,100160.80
2023-01-12T06:46:58.941Z,100165.45
2023-01-12T06:49:30.319Z,100171.98
2023-01-12T06:52:01.791Z,100173.08
2023-01-12T06:54:33.388Z,100169.64
2023-01-12T06:57:04.951Z,100174.50
2023-01-12T06:59:38.936Z,100169.00
2023-01-12T07:02:14.751Z,100176.29
2023-01-12T07:04:47.088Z,100181.19
2023-01-12T07:07:18.869Z,100187.44
2023-01-12T07:09:50.697Z,100185.52
2023-01-12T07:12:22.608Z,100185.90
2023-01-12T07:14:54.236Z,100188.51
2023-01-12T07:17:26.401Z,100186.12
2023-01-12T07:19:57.920Z,100191.73
2023-01-12T07:22:30.656Z,100188.49
2023-01-12T07:25:02.117Z,100196.03
2023-01-12T07:27:35.478Z,100199.63
2023-01-12T07:30:08.999Z,100202.98
2023-01-12T07:32:40.861Z,100205.89
2023-01-12T07:35:13.613Z,100211.02
2023-01-12T07:37:50.620Z,100215.24
2023-01-12T07:40:22.680Z,100208.54
2023-01-12T07:43:01.682Z,100208.63
2023-01-12T07:45:33.408Z,100205.38
2023-01-12T07:48:05.025Z,100206.20
2023-01-12T07:50:37.312Z,100205.47
2023-01-12T07:53:09.594Z,100204.94
2023-01-12T07:55:44.619Z,100210.06
2023-01-12T07:58:16.732Z,100210.17
2023-01-12T08:00:50.008Z,100209.45
2023-01-12T08:03:21.461Z,100208.05
2023-01-12T08:05:53.274Z,100211.97
2023-01-12T08:08:24.997Z,100214.70
2023-01-12T08:10:56.631Z,100220.70
2023-01-12T08:13:28.144Z,100221.24
2023-01-12T08:16:05.105Z,100221.89
2023-01-12T08:18:41.838Z,100217.45
2023-01-12T08:21:21.277Z,100212.23
2023-01-12T08:23:58.323Z,100214.48
2023-01-12T08:26:39.552Z,100215.56
2023-01-12T08:29:15.731Z,100216.09
2023-01-12T08:31:47.936Z,100210.52
2023-01-12T08:34:21.108Z,100206.88
2023-01-12T08:37:01.849Z,100212.60
2023-01-12T08:39:35.569Z,100208.00
2023-01-12T08:42:08.707Z,100209.14
2023-01-12T08:44:40.305Z,100210.44
2023-01-12T08:47:19.721Z,100213.58
2023-01-12T08:49:51.359Z,100214.01
2023-01-12T08:52:25.822Z,100216.42
2023-01-12T08:54:57.272Z,100211.73
2023-01-12T08:57:28.857Z,100213.77
2023-01-12T09:00:00.788Z,100214.40
2023-01-12T09:02:32.299Z,100212.52
2023-01-12T09:05:04.831Z,100213.00
2023-01-12T09:07:41.495Z,100209.02
2023-01-12T09:10:13.667Z,100208.94
2023-01-12T09:12:45.331Z,100198.19
2023-01-12T09:15:17.159Z,100200.60
2023-01-12T09:17:53.657Z,100199.00
2023-01-12T09:20:26.225Z,100193.53
2023-01-12T09:22:57.690Z,100186.11
2023-01-12T09:25:29.303Z,100184.06
2023-01-12T09:28:01.171Z,100183.39
2023-01-12T09:30:32.943Z,100177.50
2023-01-12T09:33:05.214Z,100184.33
2023-01-12T09:35:39.579Z,100186.02
2023-01-12T09:38:13.666Z,100185.60
2023-01-12T09:40:49.617Z,100189.30
2023-01-12T09:43:38.501Z,100184.40
2023-01-12T09:46:36.192Z,100182.52
2023-01-12T09:49:08.237Z,100180.44
2023-01-12T09:51:45.636Z,100178.27
2023-01-12T09:54:17.916Z,100178.98
2023-01-12T09:56:55.994Z,100169.06
2023-01-12T09:59:48.158Z,100173.25
2023-01-12T10:02:20.132Z,100169.85
2023-01-12T10:04:53.564Z,100170.55
2023-01-12T10:07:25.693Z,100169.33
2023-01-12T10:09:58.373Z,100162.64
2023-01-12T10:12:36.093Z,100163.17
2023-01-12T10:15:33.080Z,100163.72
2023-01-12T10:18:10.790Z,100169.48
2023-01-12T10:20:44.193Z,100167.36
2023-01-12T10:23:19.752Z,100164.30
2023-01-12T10:25:55.211Z,100170.05
2023-01-12T10:28:30.139Z,100169.25
2023-01-12T10:31:03.292Z,100166.54
2023-01-12T10:33:36.434Z,100159.45
2023-01-12T10:36:19.068Z,100155.08
2023-01-12T10:39:01.111Z,100155.64
2023-01-12T10:41:33.273Z,100144.85
2023-01-12T10:44:17.833Z,100142.23
2023-01-12T10:47:12.328Z,100139.08
2023-01-12T10:49:44.015Z,100133.17
2023-01-12T10:52:32.319Z,100129.52
2023-01-12T10:55:03.862Z,100126.06
2023-01-12T10:57:36.854Z,100126.19
2023-01-12T11:00:20.528Z,100125.94
2023-01-12T11:02:52.353Z,100120.79
2023-01-12T11:05:38.847Z,100103.71
2023-01-12T11:08:25.541Z,100095.08
2023-01-12T11:10:57.200Z,100095.60
2023-01-12T11:13:33.351Z,100099.56
2023-01-12T11:16:13.033Z,100095.48
2023-01-12T11:18:50.379Z,100092.77
2023-01-12T11:21:27.678Z,100086.65
2023-01-12T11:24:03.922Z,100089.61
2023-01-12T11:26:41.800Z,100089.69
2023-01-12T11:29:36.393Z,100086.88
2023-01-12T11:32:14.447Z,100082.79
2023-01-12T11:34:57.322Z,100077.44
2023-01-12T11:37:30.413Z,100073.44
2023-01-12T11:40:09.523Z,100074.69
2023-01-12T11:42:58.586Z,100074.73
2023-01-12T11:45:42.370Z,100074.21
2023-01-12T11:48:23.904Z,100074.48
2023-01-12T11:50:57.773Z,100076.83
2023-01-12T11:53:43.266Z,100069.52
2023-01-12T11:56:30.097Z,100068.07
2023-01-12T11:59:09.473Z,100066.06
2023-01-12T12:01:49.896Z,100058.66
2023-01-12T12:04:37.279Z,100059.19
2023-01-12T12:07:34.553Z,100051.13
2023-01-12T12:10:22.731Z,100049.68
2023-01-12T12:13:20.541Z,100050.98
2023-01-12T12:16:00.946Z,100050.85
2023-01-12T12:18:48.308Z,100048.81
2023-01-12T12:21:44.500Z,100048.29
2023-01-12T12:24:29.897Z,100049.33
2023-01-12T12:27:10.216Z,100043.52
2023-01-12T12:30:03.062Z,100041.42
2023-01-12T12:32:44.606Z,100037.11
2023-01-12T12:35:31.217Z,100034.61
2023-01-12T12:38:15.648Z,100033.23
2023-01-12T12:41:24.533Z,100035.21
2023-01-12T12:44:31.215Z,100031.45
2023-01-12T12:47:26.310Z,100028.77
2023-01-12T12:50:00.727Z,100028.20
2023-01-12T12:52:37.666Z,100023.39
2023-01-12T12:55:14.857Z,100021.98
2023-01-12T12:58:28.826Z,100017.10
2023-01-12T13:01:45.561Z,100020.27
2023-01-12T13:04:37.419Z,100011.11
2023-01-12T13:07:15.243Z,100003.65
2023-01-12T13:09:47.567Z,100010.86
2023-01-12T13:12:38.516Z,100011.41
2023-01-12T13:15:24.258Z,100014.16
2023-01-12T13:17:57.069Z,100007.27
2023-01-12T13:21:00.032Z,100005.92
2023-01-12T13:23:54.757Z,100003.83
2023-01-12T13:26:41.213Z,100004.58
2023-01-12T13:29:45.803Z,100007.48
2023-01-12T13:32:53.859Z,100003.02
2023-01-12T13:36:06.324Z,100003.64
2023-01-12T13:38:50.717Z,100003.95
2023-01-12T13:41:45.344Z,100004.50
2023-01-12T13:44:24.877Z,100003.60
2023-01-12T13:47:04.478Z,99992.73
2023-01-12T13:49:44.216Z,99989.18
2023-01-12T13:52:30.493Z,99981.21
2023-01-12T13:55:02.264Z,99981.69
2023-01-12T13:57:35.268Z,99982.30
2023-01-12T14:00:11.480Z,99985.10
2023-01-12T14:02:44.066Z,99980.73
2023-01-12T14:05:38.126Z,99980.09
2023-01-12T14:08:34.372Z,99978.89
2023-01-12T14:11:20.243Z,99972.70
2023-01-12T14:14:29.041Z,99972.45
2023-01-12T14:17:18.278Z,99972.09
2023-01-12T14:20:20.274Z,99970.16
2023-01-12T14:22:53.190Z,99965.04
2023-01-12T14:25:27.115Z,99964.83
2023-01-12T14:27:59.720Z,99961.91
2023-01-12T14:30:32.533Z,99964.68
2023-01-12T14:33:04.209Z,99962.77
2023-01-12T14:35:36.080Z,99955.80
2023-01-12T14:38:14.194Z,99954.52
2023-01-12T14:40:57.248Z,99953.34
2023-01-12T14:43:49.094Z,99953.67
2023-01-12T14:46:28.489Z,99949.75
2023-01-12T14:49:03.110Z,99946.02
2023-01-12T14:51:37.136Z,99945.05
2023-01-12T14:54:21.782Z,99945.45
2023-01-12T14:56:59.811Z,99940.38
2023-01-12T14:59:33.657Z,99940.26
2023-01-12T15:02:34.614Z,99942.15
2023-01-12T15:05:08.248Z,99952.00
2023-01-12T15:07:42.685Z,99952.42
2023-01-12T15:10:35.299Z,99955.65
2023-01-12T15:13:29.428Z,99955.88
2023-01-12T15:16:18.941Z,99956.55
2023-01-12T15:19:13.473Z,99956.90
2023-01-12T15:22:05.084Z,99961.02
2023-01-12T15:24:54.957Z,99960.26
2023-01-12T15:27:26.922Z,99957.44
2023-01-12T15:29:58.808Z,99953.98
2023-01-12T15:32:46.826Z,99954.23
2023-01-12T15:35:24.040Z,99954.20
2023-01-12T15:37:58.763Z,99944.59
2023-01-12T15:40:31.328Z,99945.44
2023-01-12T15:43:05.135Z,99943.43
2023-01-12T15:45:40.052Z,99942.98
2023-01-12T15:48:15.384Z,99942.30
2023-01-12T15:50:49.719Z,99941.84
2023-01-12T15:53:25.061Z,99948.33
2023-01-12T15:55:58.028Z,99944.11
2023-01-12T15:58:30.895Z,99942.21
2023-01-12T16:01:02.698Z,99941.31
2023-01-12T16:04:15.156Z,99941.58
2023-01-12T16:06:31.556Z,99934.95
2023-01-12T16:09:03.148Z,99938.58
2023-01-12T16:11:35.198Z,99934.06
2023-01-12T16:14:06.961Z,99932.22
2023-01-12T16:16:40.730Z,99929.88
2023-01-12T16:19:24.031Z,99927.34
2023-01-12T16:21:56.123Z,99927.08
2023-01-12T16:24:31.198Z,99934.39
2023-01-12T16:27:02.940Z,99938.70
2023-01-12T16:29:34.644Z,99937.67
2023-01-12T16:32:07.100Z,99939.92
2023-01-12T16:34:39.432Z,99937.42
2023-01-12T16:37:14.878Z,99936.41
2023-01-12T16:39:48.202Z,99936.00
2023-01-12T16:42:21.324Z,99936.31
2023-01-12T16:44:53.514Z,99933.56
2023-01-12T16:47:25.892Z,99927.49
2023-01-12T16:49:58.300Z,99925.42
2023-01-12T16:52:30.608Z,99924.95
2023-01-12T16:55:02.765Z,99924.91
2023-01-12T16:57:35.134Z,99927.14
2023-01-12T17:00:08.170Z,99921.34
2023-01-12T17:02:41.201Z,99917.70
2023-01-12T17:05:13.390Z,99913.98
2023-01-12T17:07:45.544Z,99912.09
2023-01-12T17:10:17.849Z,99906.95
2023-01-12T17:12:53.004Z,99905.10
2023-01-12T17:15:32.956Z,99907.73
2023-01-12T17:18:05.261Z,99898.48
2023-01-12T17:20:37.034Z,99898.86
2023-01-12T17:23:08.417Z,99897.28
2023-01-12T17:25:40.068Z,99893.10
2023-01-12T17:28:12.358Z,99891.05
2023-01-12T17:30:46.027Z,99889.00
2023-01-12T17:33:18.348Z,99886.77
2023-01-12T17:35:50.029Z,99882.76
2023-01-12T17:38:21.687Z,99887.30
2023-01-12T17:40:53.944Z,99888.17
2023-01-12T17:43:25.615Z,99886.91
2023-01-12T17:45:57.336Z,99885.57
2023-01-12T17:48:29.265Z,99883.77
2023-01-12T17:51:01.143Z,99883.91
2023-01-12T17:53:32.659Z,99889.30
2023-01-12T17:56:07.348Z,99886.56
2023-01-12T17:58:38.944Z,99893.18
2023-01-12T18:01:15.478Z,99895.16
2023-01-12T18:03:47.264Z,99890.86
2023-01-12T18:06:26.578Z,99890.77
2023-01-12T18:09:01.231Z,99881.63
2023-01-12T18:11:34.181Z,99878.92
2023-01-12T18:14:06.015Z,99873.63
2023-01-12T18:16:38.154Z,99869.27
2023-01-12T18:19:13.339Z,99864.97
2023-01-12T18:21:50.687Z,99866.73
2023-01-12T18:24:23.020Z,99859.44
2023-01-12T18:26:55.168Z,99864.93
2023-01-12T18:29:27.117Z,99869.52
2023-01-12T18:32:01.025Z,99866.73
2023-01-12T18:34:33.652Z,99860.09
2023-01-12T18:37:06.797Z,99864.19
2023-01-12T18:39:41.738Z,99860.17
2023-01-12T18:42:29.369Z,99860.86
2023-01-12T18:45:07.858Z,99855.29
2023-01-12T18:48:00.589Z,99850.13
2023-01-12T18:50:52.866Z,99849.61
2023-01-12T18:53:25.771Z,99848.73
2023-01-12T18:56:03.032Z,99848.70
2023-01-12T18:58:39.985Z,99844.99
2023-01-12T19:01:13.801Z,99841.52
2023-01-12T19:03:46.987Z,99833.95
2023-01-12T19:06:29.352Z,99841.83
2023-01-12T19:09:17.935Z,99838.71
2023-01-12T19:11:49.733Z,99839.98
2023-01-12T19:14:40.684Z,99841.16
2023-01-12T19:17:31.610Z,99837.55
2023-01-12T19:20:06.641Z,99835.92
2023-01-12T19:22:57.953Z,99837.49
2023-01-12T19:25:48.365Z,99837.11
2023-01-12T19:28:41.359Z,99835.34
2023-01-12T19:31:17.635Z,99840.71
2023-01-12T19:33:50.899Z,99842.83
2023-01-12T19:36:24.087Z,99846.20
2023-01-12T19:39:01.166Z,99842.90
2023-01-12T19:41:55.489Z,99840.30
2023-01-12T19:44:28.135Z,99838.30
2023-01-12T19:47:00.812Z,99842.00
2023-01-12T19:49:33.480Z,99839.61
2023-01-12T19:52:05.148Z,99832.57
2023-01-12T19:54:39.189Z,99833.52
2023-01-12T19:57:12.268Z,99834.52
2023-01-12T19:59:49.023Z,99831.33
2023-01-12T20:02:26.140Z,99828.61
2023-01-12T20:04:59.277Z,99827.83
2023-01-12T20:07:32.110Z,99828.44
2023-01-12T20:10:04.020Z,99828.13
2023-01-12T20:12:38.207Z,99827.75
2023-01-12T20:15:13.828Z,99835.53
2023-01-12T20:17:45.466Z,99834.46
2023-01-12T20:20:19.147Z,99833.54
2023-01-12T20:22:52.340Z,99831.77
2023-01-12T20:25:27.935Z,99831.13
2023-01-12T20:28:00.819Z,99827.77
2023-01-12T20:30:38.516Z,99824.73
2023-01-12T20:33:13.341Z,99824.38
2023-01-12T20:35:50.137Z,99817.70
2023-01-12T20:38:23.006Z,99818.98
2023-01-12T20:40:54.976Z,99822.58
2023-01-12T20:43:28.996Z,99823.29
2023-01-12T20:46:03.073Z,99824.38
2023-01-12T20:48:35.306Z,99821.98
2023-01-12T20:51:10.961Z,99824.23
2023-01-12T20:53:43.740Z,99821.02
2023-01-12T20:56:16.884Z,99820.92
2023-01-12T20:58:48.937Z,99820.08
2023-01-12T21:01:23.476Z,99813.98
2023-01-12T21:03:55.607Z,99811.61
2023-01-12T21:06:27.512Z,99811.98
2023-01-12T21:08:59.016Z,99814.98
2023-01-12T21:11:30.675Z,99813.96
2023-01-12T21:14:02.254Z,99810.48
2023-01-12T21:16:34.045Z,99814.35
2023-01-12T21:19:05.757Z,99817.55
2023-01-12T21:21:37.401Z,99816.32
2023-01-12T21:24:10.884Z,99813.33
2023-01-12T21:26:42.366Z,99817.44
2023-01-12T21:29:13.964Z,99812.36
2023-01-12T21:31:45.946Z,99812.69
2023-01-12T21:34:17.494Z,99810.87
2023-01-12T21:36:49.016Z,99807.80
2023-01-12T21:39:21.685Z,99808.13
2023-01-12T21:42:12.618Z,99808.56
2023-01-12T21:44:44.354Z,99809.63
2023-01-12T21:47:15.933Z,99810.70
2023-01-12T21:49:47.504Z,99801.73
2023-01-12T21:52:19.647Z,99804.05
2023-01-12T21:54:51.499Z,99806.81
2023-01-12T21:57:23.133Z,99804.15
2023-01-12T21:59:54.762Z,99802.45
2023-01-12T22:02:26.450Z,99799.02
2023-01-12T22:04:58.315Z,99792.73
2023-01-12T22:07:31.177Z,99790.73
2023-01-12T22:10:16.483Z,99787.48
2023-01-12T22:12:48.568Z,99786.86
2023-01-12T22:15:20.315Z,99784.09
2023-01-12T22:17:52.007Z,99785.16
2023-01-12T22:20:24.550Z,99782.40
2023-01-12T22:24:43.677Z,99779.11
2023-01-12T22:27:15.295Z,99771.79
2023-01-12T22:29:46.814Z,99762.81
2023-01-12T22:32:18.333Z,99763.40
2023-01-12T22:34:49.893Z,99761.08
2023-01-12T22:37:21.625Z,99759.92
2023-01-12T22:39:54.807Z,99765.23
2023-01-12T22:42:47.384Z,99764.64
2023-01-12T22:45:19.443Z,99767.83
2023-01-12T22:47:54.511Z,99769.46
2023-01-12T22:50:26.698Z,99762.45
2023-01-12T22:52:58.175Z,99767.00
2023-01-12T22:55:30.280Z,99761.29
2023-01-12T22:58:02.240Z,99756.98
2023-01-12T23:00:34.132Z,99758.71
2023-01-12T23:03:10.941Z,99751.66
2023-01-12T23:05:47.943Z,99748.79
2023-01-12T23:08:20.110Z,99752.08
2023-01-12T23:10:52.272Z,99752.61
2023-01-12T23:13:26.359Z,99752.77
2023-01-12T23:16:04.046Z,99755.70
2023-01-12T23:18:37.851Z,99758.21
2023-01-12T23:21:14.528Z,99761.90
2023-01-12T23:23:48.489Z,99760.52
2023-01-12T23:26:23.045Z,99761.16
2023-01-12T23:29:00.688Z,99770.11
2023-01-12T23:32:07.935Z,99769.86
2023-01-12T23:34:42.709Z,99772.34
2023-01-12T23:37:12.594Z,99773.36
2023-01-12T23:39:47.239Z,99765.41
2023-01-12T23:42:19.591Z,99765.34
2023-01-12T23:44:51.911Z,99758.60
2023-01-12T23:47:30.317Z,99756.02
2023-01-12T23:50:06.819Z,99758.45
2023-01-12T23:52:44.546Z,99756.89
2023-01-12T23:55:17.007Z,99758.27
2023-01-12T23:57:53.181Z,99754.81
